Time;durP1;ratioP1;P1;durP2;ratioP2;P2;SDS_P1;SDS_P2;PMS_P1;PMS_P2;Temp;Humidity;BMP_temperature;BMP_pressure;BME280_temperature;BME280_humidity;BME280_pressure;Samples;Min_cycle;Max_cycle;Signal;HPM_P1;HPM_P2
2021/03/25 00:01:08;;;;;;;20.23;15.53;;;2.60;89.30;;;;;;5008544;28;20459;-74
2021/03/25 00:03:37;;;;;;;28.40;17.50;;;2.60;90.10;;;;;;5010878;28;20494;-74
2021/03/25 00:06:04;;;;;;;24.33;16.60;;;2.50;90.30;;;;;;5006665;28;20854;-75
2021/03/25 00:08:30;;;;;;;28.63;18.83;;;2.60;91.10;;;;;;5020779;28;20997;-75
2021/03/25 00:10:58;;;;;;;27.27;18.27;;;2.50;90.60;;;;;;5009674;28;20452;-73
2021/03/25 00:13:25;;;;;;;34.60;18.30;;;2.40;91.10;;;;;;5015177;28;20452;-76
2021/03/25 00:15:51;;;;;;;25.90;16.47;;;2.40;91.40;;;;;;5007838;28;20491;-75
2021/03/25 00:18:18;;;;;;;28.80;17.10;;;2.50;92.80;;;;;;5018495;28;20518;-75
2021/03/25 00:20:46;;;;;;;27.80;17.23;;;2.40;91.50;;;;;;5008538;28;20915;-75
2021/03/25 00:23:13;;;;;;;27.40;17.30;;;2.40;91.30;;;;;;5016484;28;20582;-74
2021/03/25 00:25:41;;;;;;;33.00;17.80;;;2.30;91.10;;;;;;4997893;28;20491;-74
2021/03/25 00:28:10;;;;;;;23.57;15.40;;;2.40;93.50;;;;;;5009166;28;20831;-73
2021/03/25 00:30:37;;;;;;;24.80;16.10;;;2.30;92.40;;;;;;5015010;28;20590;-74
2021/03/25 00:33:06;;;;;;;26.90;17.17;;;2.40;92.30;;;;;;5010353;28;20459;-75
2021/03/25 00:35:33;;;;;;;25.53;15.77;;;2.40;91.80;;;;;;5007854;28;20463;-74
2021/03/25 00:38:00;;;;;;;24.67;16.40;;;2.40;91.50;;;;;;5009850;28;20491;-75
2021/03/25 00:40:26;;;;;;;22.90;15.80;;;2.30;91.20;;;;;;5006513;28;20449;-74
2021/03/25 00:42:53;;;;;;;28.03;16.60;;;2.30;91.60;;;;;;5010585;28;21219;-75
2021/03/25 00:45:25;;;;;;;24.40;16.27;;;2.30;92.30;;;;;;5010133;28;20466;-76
2021/03/25 00:47:52;;;;;;;24.67;17.00;;;2.30;91.80;;;;;;5011949;28;20458;-76
2021/03/25 00:50:26;;;;;;;22.63;15.97;;;2.30;91.70;;;;;;5013303;28;20443;-74
2021/03/25 00:52:52;;;;;;;23.30;16.67;;;2.30;91.40;;;;;;5011016;28;20467;-75
2021/03/25 00:55:19;;;;;;;23.10;17.20;;;2.40;91.30;;;;;;5010487;28;20444;-74
2021/03/25 00:57:46;;;;;;;20.97;16.83;;;2.30;90.80;;;;;;5009684;28;20460;-74
2021/03/25 01:00:16;;;;;;;20.93;14.90;;;2.20;91.00;;;;;;5009913;28;20483;-75
2021/03/25 01:02:43;;;;;;;23.27;16.70;;;2.10;91.50;;;;;;5008145;28;20486;-75
2021/03/25 01:05:12;;;;;;;22.57;16.77;;;2.20;92.00;;;;;;5013141;28;20468;-74
2021/03/25 01:07:38;;;;;;;28.13;17.20;;;2.30;91.70;;;;;;5012786;28;20494;-75
2021/03/25 01:10:12;;;;;;;22.00;16.63;;;2.30;91.30;;;;;;5012924;28;20530;-75
2021/03/25 01:12:39;;;;;;;25.17;17.37;;;2.20;91.30;;;;;;5005034;28;20547;-75
2021/03/25 01:15:07;;;;;;;27.43;16.73;;;2.20;91.30;;;;;;5008728;28;20479;-74
2021/03/25 01:17:33;;;;;;;22.60;16.37;;;2.20;91.20;;;;;;5014142;28;20452;-75
2021/03/25 01:20:01;;;;;;;28.13;16.73;;;2.10;91.60;;;;;;5010084;28;20443;-75
2021/03/25 01:22:27;;;;;;;22.70;16.57;;;2.10;91.70;;;;;;5008177;28;20563;-75
2021/03/25 01:24:53;;;;;;;28.70;17.40;;;2.10;92.10;;;;;;5010031;28;20538;-75
2021/03/25 01:27:20;;;;;;;26.50;16.80;;;2.10;91.80;;;;;;5015370;28;20455;-75
2021/03/25 01:29:46;;;;;;;26.50;17.30;;;2.20;92.00;;;;;;5008733;28;20570;-74
2021/03/25 01:32:12;;;;;;;27.40;17.40;;;2.10;90.90;;;;;;5016359;28;20463;-74
2021/03/25 01:34:39;;;;;;;22.53;16.37;;;2.10;90.90;;;;;;5005809;28;20954;-74
2021/03/25 01:37:06;;;;;;;25.10;15.40;;;2.10;90.90;;;;;;5007806;28;20459;-74
2021/03/25 01:39:33;;;;;;;24.37;16.03;;;1.90;90.90;;;;;;5002579;28;20483;-74
2021/03/25 01:41:59;;;;;;;26.83;16.57;;;1.80;91.70;;;;;;5016471;28;20455;-74
2021/03/25 01:44:38;;;;;;;26.10;16.30;;;1.80;92.10;;;;;;5009871;28;20463;-75
2021/03/25 01:47:06;;;;;;;26.40;17.17;;;1.70;92.70;;;;;;5010044;28;20448;-75
2021/03/25 01:49:32;;;;;;;23.60;15.33;;;1.70;93.80;;;;;;5011940;28;20531;-74
2021/03/25 01:52:19;;;;;;;28.73;18.23;;;1.70;94.00;;;;;;5015984;28;20447;-75
2021/03/25 01:55:03;;;;;;;26.33;17.37;;;1.60;93.70;;;;;;5011356;28;20483;-73
2021/03/25 01:58:04;;;;;;;26.40;16.80;;;1.60;94.10;;;;;;5010532;28;20459;-74
2021/03/25 02:00:41;;;;;;;22.57;15.40;;;1.60;94.90;;;;;;5009222;28;20809;-75
2021/03/25 02:03:27;;;;;;;24.20;16.83;;;1.70;94.40;;;;;;5017022;28;20528;-75
2021/03/25 02:05:58;;;;;;;27.27;16.90;;;1.70;93.70;;;;;;5009214;28;20471;-74
2021/03/25 02:08:44;;;;;;;26.23;16.40;;;1.60;93.40;;;;;;5011033;28;20444;-74
2021/03/25 02:11:21;;;;;;;23.10;15.40;;;1.60;94.40;;;;;;5018983;28;20447;-74
2021/03/25 02:13:57;;;;;;;22.13;15.10;;;1.50;94.30;;;;;;5020565;28;20454;-74
2021/03/25 02:16:30;;;;;;;22.73;16.50;;;1.50;95.90;;;;;;5009043;28;20514;-74
2021/03/25 02:19:07;;;;;;;25.30;16.80;;;1.40;95.40;;;;;;5011670;28;20460;-73
2021/03/25 02:21:55;;;;;;;27.50;16.40;;;1.60;95.10;;;;;;5012185;28;20506;-74
2021/03/25 02:24:32;;;;;;;22.20;15.63;;;1.60;93.20;;;;;;5012138;28;20676;-74
2021/03/25 02:27:12;;;;;;;23.50;16.67;;;1.60;93.00;;;;;;5006538;28;21550;-74
2021/03/25 02:29:51;;;;;;;26.07;16.90;;;1.60;93.10;;;;;;5011956;28;20447;-74
2021/03/25 02:32:24;;;;;;;21.57;15.07;;;1.50;93.80;;;;;;5013015;28;20535;-74
2021/03/25 02:34:53;;;;;;;26.60;15.63;;;1.50;93.40;;;;;;5009532;28;20494;-75
2021/03/25 02:37:23;;;;;;;23.03;16.27;;;1.50;93.50;;;;;;5016450;28;20834;-75
2021/03/25 02:39:55;;;;;;;21.00;15.90;;;1.50;93.20;;;;;;5009957;28;20573;-74
2021/03/25 02:42:26;;;;;;;27.57;16.50;;;1.50;93.10;;;;;;5013843;28;20452;-74
2021/03/25 02:44:57;;;;;;;22.53;14.83;;;1.50;93.10;;;;;;5013943;28;20503;-74
2021/03/25 02:47:25;;;;;;;22.50;15.13;;;1.50;93.30;;;;;;5010353;28;20456;-75
2021/03/25 02:49:55;;;;;;;21.63;15.80;;;1.50;93.30;;;;;;5023066;28;20478;-76
2021/03/25 02:52:24;;;;;;;23.17;16.67;;;1.40;93.80;;;;;;5009735;28;20483;-74
2021/03/25 02:54:52;;;;;;;23.17;16.87;;;1.40;94.60;;;;;;5012256;28;20451;-74
2021/03/25 02:57:23;;;;;;;26.67;17.40;;;1.50;94.70;;;;;;5009147;28;20460;-75
2021/03/25 02:59:55;;;;;;;23.30;16.30;;;1.50;93.90;;;;;;5010451;28;20537;-75
2021/03/25 03:02:29;;;;;;;31.40;18.40;;;1.50;93.80;;;;;;5010329;28;20499;-74
2021/03/25 03:05:01;;;;;;;29.57;17.27;;;1.50;93.90;;;;;;5007649;28;20507;-75
2021/03/25 03:07:31;;;;;;;26.63;16.47;;;1.40;94.10;;;;;;5014197;28;20464;-73
2021/03/25 03:10:03;;;;;;;28.33;17.83;;;1.50;94.10;;;;;;5021076;28;20447;-74
2021/03/25 03:12:34;;;;;;;22.90;17.70;;;1.40;94.10;;;;;;5010765;28;20459;-73
2021/03/25 03:15:04;;;;;;;30.53;17.57;;;1.40;94.30;;;;;;5023824;28;20513;-73
2021/03/25 03:17:37;;;;;;;24.90;16.50;;;1.40;94.20;;;;;;5009155;28;20515;-75
2021/03/25 03:20:08;;;;;;;23.47;19.00;;;1.30;94.00;;;;;;5024295;28;20950;-74
2021/03/25 03:22:35;;;;;;;26.90;17.27;;;1.30;95.00;;;;;;5013380;28;20538;-73
2021/03/25 03:25:07;;;;;;;30.47;18.27;;;1.30;95.40;;;;;;5013493;28;20475;-75
2021/03/25 03:27:38;;;;;;;28.33;16.83;;;1.20;95.30;;;;;;5010024;28;20486;-74
2021/03/25 03:30:08;;;;;;;32.23;19.27;;;1.30;95.70;;;;;;5011714;28;20462;-74
2021/03/25 03:32:45;;;;;;;29.70;19.17;;;1.30;96.30;;;;;;5015417;28;20516;-75
2021/03/25 03:35:17;;;;;;;25.97;16.90;;;1.30;95.40;;;;;;5008528;28;20550;-74
2021/03/25 03:37:47;;;;;;;26.63;17.07;;;1.20;94.80;;;;;;5016615;28;20987;-74
2021/03/25 03:40:17;;;;;;;29.23;17.57;;;1.10;95.20;;;;;;5019437;28;20451;-74
2021/03/25 03:42:44;;;;;;;28.30;17.90;;;1.10;97.60;;;;;;5020136;28;20471;-74
2021/03/25 03:45:15;;;;;;;25.03;18.47;;;1.30;96.50;;;;;;5010678;28;20472;-73
2021/03/25 03:47:45;;;;;;;25.37;17.60;;;1.30;95.30;;;;;;5017457;28;20515;-74
2021/03/25 03:50:18;;;;;;;29.53;17.70;;;1.30;95.00;;;;;;5010619;28;20447;-74
2021/03/25 03:52:48;;;;;;;25.10;16.73;;;1.20;95.30;;;;;;5014383;28;20840;-74
2021/03/25 03:55:15;;;;;;;26.00;16.87;;;1.20;95.40;;;;;;5006944;28;21056;-74
2021/03/25 03:57:50;;;;;;;26.57;17.63;;;1.20;95.50;;;;;;5023679;28;20458;-74
2021/03/25 04:00:27;;;;;;;26.23;16.90;;;1.10;95.80;;;;;;5006914;28;20463;-75
2021/03/25 04:03:05;;;;;;;25.90;17.57;;;1.20;96.50;;;;;;5002935;28;20463;-76
2021/03/25 04:05:34;;;;;;;27.40;18.30;;;1.20;95.90;;;;;;5007749;28;20511;-74
2021/03/25 04:08:05;;;;;;;26.07;17.20;;;1.10;95.60;;;;;;5009725;28;20503;-74
2021/03/25 04:10:36;;;;;;;30.10;18.23;;;1.00;95.80;;;;;;5015456;28;20455;-74
2021/03/25 04:13:04;;;;;;;25.90;17.13;;;1.10;96.10;;;;;;5008530;28;20459;-74
2021/03/25 04:15:33;;;;;;;23.10;17.80;;;1.10;95.70;;;;;;5007423;28;20514;-74
2021/03/25 04:18:06;;;;;;;23.87;16.50;;;1.10;95.60;;;;;;5009665;28;20562;-74
2021/03/25 04:20:36;;;;;;;27.23;17.93;;;1.10;95.80;;;;;;5009516;28;20440;-75
2021/03/25 04:23:12;;;;;;;29.50;19.20;;;1.10;95.30;;;;;;5015948;28;20499;-74
2021/03/25 04:25:43;;;;;;;27.03;18.03;;;1.10;95.50;;;;;;5011477;28;20472;-76
2021/03/25 04:28:14;;;;;;;24.10;17.57;;;1.10;95.30;;;;;;5014470;28;20958;-75
2021/03/25 04:30:44;;;;;;;28.73;17.83;;;1.10;96.30;;;;;;5013636;28;20493;-74
2021/03/25 04:33:12;;;;;;;27.37;17.70;;;1.00;94.60;;;;;;5013092;28;20456;-74
2021/03/25 04:35:42;;;;;;;25.37;16.97;;;1.00;96.20;;;;;;5006336;28;20471;-75
2021/03/25 04:38:11;;;;;;;28.77;17.80;;;1.10;95.50;;;;;;5016886;28;20458;-74
2021/03/25 04:40:38;;;;;;;27.43;18.33;;;1.10;96.70;;;;;;5011037;28;20878;-75
2021/03/25 04:43:05;;;;;;;29.37;17.80;;;0.90;94.90;;;;;;5019731;28;20547;-75
2021/03/25 04:45:45;;;;;;;27.43;18.10;;;0.90;96.60;;;;;;5013377;28;20472;-74
2021/03/25 04:48:15;;;;;;;29.83;18.07;;;0.90;98.20;;;;;;5006917;28;20451;-75
2021/03/25 04:50:45;;;;;;;32.07;18.80;;;0.90;99.00;;;;;;5017591;28;20820;-74
2021/03/25 04:53:22;;;;;;;25.77;18.30;;;1.00;97.70;;;;;;5009534;28;20510;-74
2021/03/25 04:55:51;;;;;;;30.33;17.70;;;1.00;96.10;;;;;;5015929;28;20456;-74
2021/03/25 04:58:26;;;;;;;29.27;18.00;;;1.00;96.40;;;;;;5013104;28;20459;-75
2021/03/25 05:00:53;;;;;;;28.50;17.90;;;1.10;96.00;;;;;;5013027;28;20510;-74
2021/03/25 05:03:23;;;;;;;29.27;17.53;;;1.10;95.50;;;;;;5010156;28;20472;-73
2021/03/25 05:05:53;;;;;;;27.90;17.50;;;1.00;95.00;;;;;;5008777;28;20455;-74
2021/03/25 05:08:23;;;;;;;30.57;18.40;;;1.00;95.00;;;;;;5014345;28;21069;-76
2021/03/25 05:10:57;;;;;;;27.37;17.40;;;1.00;95.20;;;;;;5016154;28;20450;-75
2021/03/25 05:13:26;;;;;;;27.63;18.17;;;0.90;95.80;;;;;;5024738;28;20455;-75
2021/03/25 05:16:17;;;;;;;30.07;19.70;;;1.00;96.30;;;;;;5035317;28;20447;-74
2021/03/25 05:18:55;;;;;;;28.57;18.00;;;1.00;95.40;;;;;;5009583;28;20720;-74
2021/03/25 05:21:27;;;;;;;30.17;19.17;;;1.00;94.20;;;;;;5007840;28;20491;-75
2021/03/25 05:24:03;;;;;;;29.77;17.87;;;1.10;94.30;;;;;;5004951;28;20471;-73
2021/03/25 05:26:38;;;;;;;29.60;17.83;;;1.20;94.80;;;;;;5012171;28;20819;-74
2021/03/25 05:29:07;;;;;;;29.87;18.97;;;1.20;93.60;;;;;;5012837;28;20455;-74
2021/03/25 05:31:36;;;;;;;29.10;17.67;;;1.30;93.30;;;;;;5011988;28;20991;-75
2021/03/25 05:34:06;;;;;;;32.40;17.77;;;1.30;92.90;;;;;;5014773;28;20460;-75
2021/03/25 05:36:33;;;;;;;27.63;18.50;;;1.40;92.50;;;;;;5014343;28;20453;-75
2021/03/25 05:39:00;;;;;;;29.13;17.70;;;1.50;91.80;;;;;;5011133;28;20522;-75
2021/03/25 05:41:33;;;;;;;31.73;17.73;;;1.60;91.00;;;;;;5019543;28;20530;-74
2021/03/25 05:44:41;;;;;;;31.67;19.80;;;1.70;90.60;;;;;;5020515;28;20517;-75
2021/03/25 05:47:23;;;;;;;26.47;16.90;;;1.80;90.20;;;;;;5017580;28;20566;-76
2021/03/25 05:50:03;;;;;;;25.47;17.93;;;1.80;88.90;;;;;;5009585;28;20471;-74
2021/03/25 05:52:38;;;;;;;33.37;18.60;;;1.90;88.20;;;;;;5012336;28;20466;-74
2021/03/25 05:55:23;;;;;;;33.93;18.27;;;2.00;87.50;;;;;;5012925;28;20506;-75
2021/03/25 05:58:05;;;;;;;26.70;18.80;;;2.10;86.60;;;;;;5009741;28;20482;-75
2021/03/25 06:00:37;;;;;;;26.53;17.40;;;2.10;85.60;;;;;;5009794;28;20907;-76
2021/03/25 06:03:08;;;;;;;24.87;17.27;;;2.20;84.90;;;;;;5010843;28;21249;-74
2021/03/25 06:05:35;;;;;;;27.17;18.23;;;2.30;84.20;;;;;;5011298;28;20529;-74
2021/03/25 06:08:22;;;;;;;30.10;18.77;;;2.40;83.70;;;;;;5007771;28;20535;-74
2021/03/25 06:11:01;;;;;;;28.27;16.83;;;2.40;83.40;;;;;;5012647;28;20581;-75
2021/03/25 06:13:38;;;;;;;31.23;17.70;;;2.50;82.70;;;;;;5007817;28;20799;-75
2021/03/25 06:16:20;;;;;;;29.93;16.93;;;2.70;81.90;;;;;;5014141;28;20821;-74
2021/03/25 06:19:18;;;;;;;30.27;17.45;;;2.80;81.20;;;;;;5019523;28;20340;-78
2021/03/25 06:22:01;;;;;;;28.50;16.90;;;3.00;80.40;;;;;;5020355;28;20232;-79
2021/03/25 06:24:50;;;;;;;34.40;18.40;;;3.10;79.60;;;;;;5021140;28;20475;-78
2021/03/25 06:27:26;;;;;;;29.50;16.37;;;3.20;79.10;;;;;;5016433;28;20467;-79
2021/03/25 06:29:58;;;;;;;25.37;16.93;;;3.30;78.80;;;;;;5018842;28;20467;-79
2021/03/25 06:32:31;;;;;;;24.23;17.30;;;3.40;78.40;;;;;;5025068;28;20476;-79
2021/03/25 06:35:03;;;;;;;31.07;18.33;;;3.50;77.70;;;;;;5024001;28;20510;-79
2021/03/25 06:37:36;;;;;;;29.53;16.93;;;3.60;77.00;;;;;;5018397;28;20462;-79
2021/03/25 06:40:05;;;;;;;28.60;17.53;;;3.70;76.70;;;;;;5030937;28;20481;-79
2021/03/25 06:42:37;;;;;;;30.10;18.30;;;3.80;76.30;;;;;;5030375;28;20482;-79
2021/03/25 06:45:11;;;;;;;27.90;17.80;;;3.90;75.90;;;;;;5027214;28;20474;-79
2021/03/25 06:47:48;;;;;;;26.93;18.53;;;4.10;75.60;;;;;;5026658;28;20479;-79
2021/03/25 06:50:18;;;;;;;23.80;16.50;;;4.20;75.00;;;;;;5017781;28;20459;-79
2021/03/25 06:52:45;;;;;;;28.63;17.63;;;4.30;74.60;;;;;;5017128;28;20614;-79
2021/03/25 06:55:18;;;;;;;25.63;17.00;;;4.40;74.10;;;;;;5019224;28;20963;-79
2021/03/25 06:57:51;;;;;;;30.53;17.70;;;4.50;74.00;;;;;;5031673;28;20464;-80
2021/03/25 07:00:21;;;;;;;28.23;17.70;;;4.50;73.60;;;;;;5027204;28;21381;-79
2021/03/25 07:02:48;;;;;;;25.67;17.70;;;4.70;73.30;;;;;;5024257;28;20446;-80
2021/03/25 07:05:22;;;;;;;25.17;17.87;;;4.80;72.90;;;;;;5027210;28;20487;-79
2021/03/25 07:08:01;;;;;;;22.07;17.20;;;4.90;72.60;;;;;;5021658;28;20487;-80
2021/03/25 07:10:28;;;;;;;23.60;17.27;;;5.00;72.30;;;;;;5023743;28;20458;-79
2021/03/25 07:13:04;;;;;;;25.27;17.80;;;5.10;72.10;;;;;;5017927;28;20866;-79
2021/03/25 07:15:32;;;;;;;25.20;17.20;;;5.20;71.80;;;;;;5017367;28;20440;-79
2021/03/25 07:18:02;;;;;;;39.23;20.33;;;5.40;71.40;;;;;;5019306;28;21242;-80
2021/03/25 07:20:32;;;;;;;28.03;18.03;;;5.60;71.10;;;;;;5019485;28;20463;-80
2021/03/25 07:23:03;;;;;;;25.57;16.90;;;5.80;71.80;;;;;;5023984;28;20469;-79
2021/03/25 07:25:31;;;;;;;27.50;17.07;;;6.00;70.40;;;;;;5016589;28;20495;-80
2021/03/25 07:27:58;;;;;;;26.10;17.60;;;6.20;70.00;;;;;;5014241;28;20449;-80
2021/03/25 07:30:29;;;;;;;28.37;17.37;;;6.30;69.50;;;;;;5016387;28;20468;-79
2021/03/25 07:33:04;;;;;;;24.97;16.87;;;6.40;69.80;;;;;;5021624;28;20487;-79
2021/03/25 07:35:34;;;;;;;31.87;17.20;;;6.50;69.20;;;;;;5016860;28;20472;-80
2021/03/25 07:38:16;;;;;;;35.53;19.07;;;6.60;68.70;;;;;;5021003;28;20492;-78
2021/03/25 07:40:43;;;;;;;25.80;18.27;;;6.70;68.30;;;;;;5022835;28;20463;-82
2021/03/25 07:43:19;;;;;;;26.17;17.07;;;7.00;69.90;;;;;;5023389;28;20551;-81
2021/03/25 07:45:45;;;;;;;26.70;17.57;;;7.10;68.70;;;;;;5019120;28;20480;-79
2021/03/25 07:48:21;;;;;;;32.33;20.00;;;7.20;67.40;;;;;;5015528;28;20457;-80
2021/03/25 07:50:49;;;;;;;24.83;16.27;;;7.30;67.00;;;;;;5021050;28;20548;-79
2021/03/25 07:53:25;;;;;;;25.40;17.90;;;7.40;67.00;;;;;;5020804;28;20870;-81
2021/03/25 07:56:06;;;;;;;26.40;18.87;;;7.60;66.80;;;;;;5020783;28;20822;-80
2021/03/25 07:58:39;;;;;;;25.33;16.87;;;7.70;66.70;;;;;;5020177;28;20460;-80
2021/03/25 08:01:08;;;;;;;25.60;18.83;;;7.90;66.00;;;;;;5022686;28;20448;-80
2021/03/25 08:03:44;;;;;;;25.67;17.43;;;8.00;65.90;;;;;;5019895;28;20468;-80
2021/03/25 08:06:22;;;;;;;24.67;17.43;;;8.20;65.50;;;;;;5024270;28;20496;-80
2021/03/25 08:09:07;;;;;;;25.00;17.57;;;8.30;65.00;;;;;;5022241;28;20450;-79
2021/03/25 08:11:48;;;;;;;34.43;18.60;;;8.60;64.50;;;;;;5023632;28;20454;-76
2021/03/25 08:14:20;;;;;;;24.17;16.80;;;8.80;64.30;;;;;;5005181;28;20451;-75
2021/03/25 08:16:51;;;;;;;21.23;16.13;;;8.90;63.60;;;;;;5001758;28;20447;-74
2021/03/25 08:19:30;;;;;;;28.60;17.10;;;9.10;63.30;;;;;;5010195;28;20456;-74
2021/03/25 08:22:10;;;;;;;30.80;17.83;;;9.10;62.50;;;;;;5005454;28;20450;-75
2021/03/25 08:25:03;;;;;;;36.80;17.10;;;9.30;62.40;;;;;;5010100;28;20469;-75
2021/03/25 08:27:57;;;;;;;25.03;17.20;;;9.50;62.00;;;;;;5008340;28;20491;-74
2021/03/25 08:30:49;;;;;;;27.97;18.50;;;9.90;61.50;;;;;;5008860;28;20466;-74
2021/03/25 08:33:26;;;;;;;27.77;17.87;;;9.90;60.80;;;;;;5017582;28;20462;-75
2021/03/25 08:36:02;;;;;;;23.60;17.80;;;10.00;59.60;;;;;;5025235;28;20464;-76
2021/03/25 08:39:00;;;;;;;25.40;17.13;;;10.10;59.70;;;;;;5026184;28;20451;-74
2021/03/25 08:41:30;;;;;;;31.97;19.10;;;10.30;59.10;;;;;;5011402;28;20452;-76
2021/03/25 08:44:02;;;;;;;38.60;20.97;;;10.20;57.90;;;;;;5029897;28;20503;-75
2021/03/25 08:46:33;;;;;;;23.60;16.93;;;10.60;58.10;;;;;;5012435;28;20478;-75
2021/03/25 08:49:03;;;;;;;24.93;17.80;;;11.00;58.00;;;;;;5033963;28;20479;-75
2021/03/25 08:51:34;;;;;;;24.33;16.80;;;11.30;57.70;;;;;;5015492;28;20464;-75
2021/03/25 08:54:10;;;;;;;25.63;17.63;;;11.50;56.90;;;;;;5016203;28;20463;-75
2021/03/25 08:56:43;;;;;;;24.53;17.10;;;11.60;56.30;;;;;;5009314;28;20558;-74
2021/03/25 08:59:18;;;;;;;24.50;17.17;;;11.70;56.10;;;;;;5017825;28;20455;-77
2021/03/25 09:01:50;;;;;;;22.70;16.60;;;11.90;55.80;;;;;;5019918;28;20455;-76
2021/03/25 09:04:19;;;;;;;58.87;21.10;;;12.20;55.40;;;;;;5018056;28;20460;-77
2021/03/25 09:06:50;;;;;;;25.67;17.30;;;12.30;54.80;;;;;;5019743;28;20459;-75
2021/03/25 09:09:50;;;;;;;22.03;16.50;;;12.50;54.70;;;;;;5028883;28;20444;-75
2021/03/25 09:12:22;;;;;;;30.43;18.20;;;12.70;54.30;;;;;;4985536;28;20455;-75
2021/03/25 09:14:49;;;;;;;24.40;16.27;;;13.10;53.90;;;;;;5021547;28;20444;-75
2021/03/25 09:17:19;;;;;;;29.10;17.03;;;13.10;53.70;;;;;;5021623;28;20454;-74
2021/03/25 09:19:49;;;;;;;22.30;15.40;;;13.20;53.40;;;;;;5011585;28;20906;-75
2021/03/25 09:22:56;;;;;;;23.67;17.90;;;13.40;53.20;;;;;;5010629;28;20455;-74
2021/03/25 09:25:41;;;;;;;29.53;16.50;;;13.60;52.90;;;;;;5026632;28;20541;-76
2021/03/25 09:28:18;;;;;;;26.63;16.70;;;13.80;52.50;;;;;;5011688;28;20509;-75
2021/03/25 09:31:08;;;;;;;37.37;16.60;;;14.00;52.00;;;;;;5012323;28;20447;-75
2021/03/25 09:33:52;;;;;;;24.93;16.40;;;14.10;51.80;;;;;;5018641;28;20458;-75
2021/03/25 09:36:43;;;;;;;25.80;16.90;;;14.00;51.20;;;;;;5020837;28;20447;-75
2021/03/25 09:39:27;;;;;;;24.50;15.80;;;14.30;51.10;;;;;;5012533;28;20436;-75
2021/03/25 09:41:55;;;;;;;36.97;16.40;;;14.50;50.70;;;;;;4997592;28;20451;-75
2021/03/25 09:44:35;;;;;;;24.60;15.17;;;14.60;50.40;;;;;;5020563;28;20460;-75
2021/03/25 09:47:26;;;;;;;26.37;13.63;;;14.70;50.00;;;;;;5009463;28;20495;-75
2021/03/25 09:49:57;;;;;;;23.83;14.23;;;14.80;49.70;;;;;;5001040;28;20451;-74
2021/03/25 09:52:39;;;;;;;26.60;16.07;;;14.90;49.60;;;;;;5010459;28;20471;-75
2021/03/25 09:55:25;;;;;;;17.20;13.30;;;14.90;49.30;;;;;;5008730;28;21017;-75
2021/03/25 09:57:53;;;;;;;18.67;11.90;;;15.00;49.20;;;;;;5009389;28;20455;-74
2021/03/25 10:00:54;;;;;;;16.63;12.80;;;15.20;49.00;;;;;;5011851;28;20939;-74
2021/03/25 10:04:00;;;;;;;16.53;12.47;;;15.30;48.80;;;;;;5009263;28;20458;-75
2021/03/25 10:07:00;;;;;;;19.70;11.37;;;15.10;48.80;;;;;;5008992;28;20810;-75
2021/03/25 10:09:59;;;;;;;46.60;15.30;;;15.30;48.90;;;;;;5016004;28;20486;-75
2021/03/25 10:12:45;;;;;;;18.17;13.83;;;15.40;49.00;;;;;;5014016;28;20451;-78
2021/03/25 10:15:50;;;;;;;22.00;13.27;;;15.40;48.30;;;;;;5009387;28;20443;-75
2021/03/25 10:18:56;;;;;;;19.90;13.97;;;15.50;48.40;;;;;;5011262;28;20466;-75
2021/03/25 10:22:03;;;;;;;43.17;14.97;;;15.60;48.10;;;;;;5019309;28;20462;-74
2021/03/25 10:24:34;;;;;;;27.63;13.87;;;16.10;48.20;;;;;;5005409;28;20471;-75
2021/03/25 10:27:12;;;;;;;17.63;12.93;;;16.00;46.40;;;;;;5021028;28;20471;-75
2021/03/25 10:29:40;;;;;;;17.40;12.13;;;15.70;46.00;;;;;;5012708;28;20502;-75
2021/03/25 10:32:17;;;;;;;25.07;12.70;;;15.80;46.10;;;;;;5011822;28;20448;-78
2021/03/25 10:34:44;;;;;;;22.37;12.23;;;15.90;46.10;;;;;;5000383;28;20467;-78
2021/03/25 10:37:27;;;;;;;22.27;13.20;;;16.10;46.00;;;;;;5022648;28;20631;-80
2021/03/25 10:40:08;;;;;;;112.73;20.07;;;16.00;47.00;;;;;;5006894;28;20456;-77
2021/03/25 10:42:37;;;;;;;68.90;17.23;;;16.40;46.50;;;;;;5030941;28;20469;-83
2021/03/25 10:45:25;;;;;;;33.17;14.83;;;16.40;45.60;;;;;;5027693;28;20756;-80
2021/03/25 10:47:59;;;;;;;15.60;11.93;;;16.50;45.70;;;;;;5024017;28;20519;-77
2021/03/25 10:50:33;;;;;;;18.50;12.60;;;16.60;44.90;;;;;;5026377;28;20797;-77
2021/03/25 10:53:03;;;;;;;16.73;11.90;;;16.70;44.60;;;;;;5035021;28;21160;-79
2021/03/25 10:55:38;;;;;;;32.50;13.27;;;16.90;44.30;;;;;;5026552;28;20475;-77
2021/03/25 10:58:06;;;;;;;23.75;13.50;;;16.80;43.50;;;;;;5025344;28;20537;-77
2021/03/25 11:00:37;;;;;;;59.03;18.02;;;16.90;44.70;;;;;;5021623;28;20369;-76
2021/03/25 11:03:19;;;;;;;20.03;14.17;;;17.00;43.60;;;;;;5022267;28;20205;-82
2021/03/25 11:05:55;;;;;;;17.37;12.93;;;17.00;43.50;;;;;;5029158;28;20499;-83
2021/03/25 11:08:31;;;;;;;26.33;13.23;;;16.90;43.60;;;;;;5035950;28;20429;-84
2021/03/25 11:11:06;;;;;;;26.47;13.60;;;16.60;43.10;;;;;;5020524;28;20451;-79
2021/03/25 11:13:33;;;;;;;21.60;11.73;;;16.90;43.40;;;;;;5026547;28;20509;-80
2021/03/25 11:16:04;;;;;;;31.30;17.73;;;17.00;42.90;;;;;;5010834;28;20451;-76
2021/03/25 11:18:35;;;;;;;14.40;12.00;;;17.20;42.50;;;;;;5015428;28;20208;-76
2021/03/25 11:21:04;;;;;;;49.37;14.20;;;17.10;42.30;;;;;;5014964;28;20514;-77
2021/03/25 11:23:32;;;;;;;14.30;11.50;;;16.80;42.10;;;;;;5024788;28;20468;-76
2021/03/25 11:26:07;;;;;;;17.80;11.43;;;17.10;42.30;;;;;;5015198;28;20472;-77
2021/03/25 11:28:37;;;;;;;21.07;11.73;;;17.20;42.10;;;;;;5016411;28;20458;-76
2021/03/25 11:31:24;;;;;;;16.00;9.23;;;17.20;42.00;;;;;;5009625;28;20496;-76
2021/03/25 11:33:53;;;;;;;39.10;13.60;;;17.40;42.10;;;;;;5015107;28;21364;-77
2021/03/25 11:36:37;;;;;;;12.93;9.53;;;17.60;41.90;;;;;;5010649;28;20459;-76
2021/03/25 11:39:18;;;;;;;15.67;10.87;;;17.60;41.30;;;;;;5014907;28;20458;-77
2021/03/25 11:41:48;;;;;;;15.33;11.60;;;17.40;41.50;;;;;;5020829;28;20466;-78
2021/03/25 11:44:40;;;;;;;14.63;9.97;;;17.30;42.10;;;;;;5033530;28;20455;-78
2021/03/25 11:47:37;;;;;;;17.70;11.50;;;17.60;42.10;;;;;;5015692;28;20498;-76
2021/03/25 11:50:28;;;;;;;19.00;10.67;;;17.80;41.80;;;;;;5018186;28;20447;-76
2021/03/25 11:52:57;;;;;;;16.20;10.70;;;17.90;41.40;;;;;;5017967;28;20463;-80
2021/03/25 11:55:28;;;;;;;20.43;12.20;;;17.80;42.10;;;;;;5035471;28;20472;-77
2021/03/25 11:57:56;;;;;;;17.03;11.47;;;17.80;41.30;;;;;;5027039;28;20519;-77
2021/03/25 12:00:25;;;;;;;17.17;10.67;;;17.90;41.30;;;;;;5019823;28;20456;-77
2021/03/25 12:02:53;;;;;;;21.53;10.97;;;17.80;40.90;;;;;;5020536;28;20456;-78
2021/03/25 12:05:41;;;;;;;12.00;10.07;;;17.80;41.00;;;;;;5025434;28;20448;-78
2021/03/25 12:08:32;;;;;;;17.50;10.10;;;17.50;40.80;;;;;;5025280;28;20502;-80
2021/03/25 12:11:01;;;;;;;12.83;9.47;;;17.90;40.80;;;;;;5016421;28;20444;-79
2021/03/25 12:13:32;;;;;;;13.47;8.97;;;17.90;40.90;;;;;;5035434;28;20454;-83
2021/03/25 12:15:59;;;;;;;11.80;9.40;;;17.70;40.10;;;;;;5029269;28;20456;-81
2021/03/25 12:18:31;;;;;;;18.83;10.00;;;18.00;40.10;;;;;;5019089;28;20463;-82
2021/03/25 12:21:03;;;;;;;14.30;9.60;;;18.10;39.90;;;;;;5017895;28;20535;-80
2021/03/25 12:23:33;;;;;;;13.37;9.70;;;18.10;39.80;;;;;;5024009;28;20499;-81
2021/03/25 12:26:02;;;;;;;13.30;10.63;;;17.70;39.70;;;;;;5016607;28;20498;-80
2021/03/25 12:28:30;;;;;;;12.70;10.43;;;18.00;40.10;;;;;;5020013;28;21090;-81
2021/03/25 12:30:57;;;;;;;15.00;10.90;;;18.10;40.00;;;;;;5015585;28;20494;-79
2021/03/25 12:33:25;;;;;;;12.00;9.23;;;18.30;40.50;;;;;;5022076;28;20920;-79
2021/03/25 12:35:53;;;;;;;20.50;12.17;;;18.50;39.70;;;;;;5032947;28;20456;-85
2021/03/25 12:38:23;;;;;;;11.50;8.77;;;18.70;39.80;;;;;;5033247;28;20461;-82
2021/03/25 12:40:53;;;;;;;10.90;7.70;;;18.50;39.60;;;;;;5024345;28;20457;-81
2021/03/25 12:43:27;;;;;;;11.97;8.20;;;17.90;38.90;;;;;;5027973;28;20507;-85
2021/03/25 12:45:57;;;;;;;11.63;8.10;;;18.00;39.10;;;;;;5021697;28;20478;-80
2021/03/25 12:48:27;;;;;;;10.03;7.33;;;17.90;39.40;;;;;;5025254;28;20435;-84
2021/03/25 12:50:54;;;;;;;11.70;7.32;;;17.70;38.70;;;;;;5036304;28;20464;-84
2021/03/25 12:53:24;;;;;;;10.05;7.05;;;17.50;38.80;;;;;;5026824;28;20459;-80
2021/03/25 12:55:52;;;;;;;27.43;8.67;;;17.50;38.70;;;;;;5023732;28;20205;-81
2021/03/25 12:58:20;;;;;;;9.80;5.73;;;17.90;38.50;;;;;;5028141;28;20463;-83
2021/03/25 13:00:48;;;;;;;7.90;5.30;;;18.10;38.00;;;;;;5028910;28;20455;-80
2021/03/25 13:03:16;;;;;;;9.40;6.53;;;18.50;38.20;;;;;;5038021;28;20491;-85
2021/03/25 13:05:43;;;;;;;7.50;6.70;;;18.50;37.90;;;;;;5028680;28;20530;-82
2021/03/25 13:08:10;;;;;;;18.37;6.33;;;18.40;37.80;;;;;;5015576;28;20461;-83